Time;durP1;ratioP1;P1;durP2;ratioP2;P2;SDS_P1;SDS_P2;PMS_P1;PMS_P2;Temp;Humidity;BMP_temperature;BMP_pressure;BME280_temperature;BME280_humidity;BME280_pressure;Samples;Min_cycle;Max_cycle;Signal;HPM_P1;HPM_P2
2022/12/09 00:01:07;;;;;;;7.63;3.42;;;-1.90;99.90;;;;;;5055233;28;20481;-85
2022/12/09 00:03:33;;;;;;;8.65;3.67;;;-1.70;99.90;;;;;;5073611;28;20044;-85
2022/12/09 00:05:59;;;;;;;8.13;3.50;;;-1.40;99.90;;;;;;5073183;28;20089;-84
2022/12/09 00:08:25;;;;;;;10.13;3.75;;;-1.80;99.90;;;;;;5054510;28;20040;-84
2022/12/09 00:10:51;;;;;;;9.48;3.95;;;-2.00;99.90;;;;;;5076376;28;20044;-84
2022/12/09 00:13:16;;;;;;;8.13;3.95;;;0.80;99.90;;;;;;5099119;28;20381;-84
2022/12/09 00:15:42;;;;;;;8.63;3.42;;;-1.70;99.90;;;;;;5104814;28;20043;-84
2022/12/09 00:18:08;;;;;;;6.90;3.47;;;-1.90;99.90;;;;;;5095008;28;20040;-84
2022/12/09 00:20:34;;;;;;;6.40;2.97;;;-0.50;99.90;;;;;;5093310;28;20100;-85
2022/12/09 00:23:00;;;;;;;10.18;4.40;;;-1.80;99.90;;;;;;5100996;28;20442;-84
2022/12/09 00:25:26;;;;;;;11.15;4.85;;;-1.90;99.90;;;;;;5075236;28;20051;-84
2022/12/09 00:27:51;;;;;;;11.18;3.95;;;-1.80;99.90;;;;;;5081357;28;20138;-83
2022/12/09 00:30:17;;;;;;;12.82;4.78;;;-0.40;99.90;;;;;;5093246;28;20033;-84
2022/12/09 00:32:42;;;;;;;8.98;3.63;;;-1.90;99.90;;;;;;5100669;28;20644;-84
2022/12/09 00:35:08;;;;;;;12.13;4.47;;;-1.00;99.90;;;;;;5101854;28;20035;-82
2022/12/09 00:37:34;;;;;;;10.38;4.53;;;-2.00;99.90;;;;;;5081866;28;20047;-83
2022/12/09 00:40:00;;;;;;;9.18;3.65;;;-2.00;99.90;;;;;;5092443;28;20036;-83
2022/12/09 00:42:25;;;;;;;13.05;5.45;;;-2.10;99.90;;;;;;5095294;28;20047;-83
2022/12/09 00:44:51;;;;;;;12.38;5.32;;;-2.10;99.90;;;;;;5103962;28;20043;-84
2022/12/09 00:47:18;;;;;;;11.23;4.85;;;-2.10;99.90;;;;;;5101836;28;20050;-85
2022/12/09 00:49:43;;;;;;;10.98;4.75;;;-2.20;99.90;;;;;;5076571;28;20460;-83
2022/12/09 00:52:09;;;;;;;10.77;4.78;;;-2.20;99.90;;;;;;5078687;28;20135;-83
2022/12/09 00:54:35;;;;;;;11.10;4.38;;;-2.20;99.90;;;;;;5100406;28;20128;-84
2022/12/09 00:57:01;;;;;;;8.80;3.50;;;-0.90;99.90;;;;;;5100864;28;20150;-84
2022/12/09 00:59:27;;;;;;;9.77;4.55;;;-2.20;99.90;;;;;;5081722;28;20568;-83
2022/12/09 01:01:52;;;;;;;6.93;3.97;;;-0.80;99.90;;;;;;5101365;28;20126;-84
2022/12/09 01:04:18;;;;;;;10.45;3.65;;;-2.20;99.90;;;;;;5093230;28;20381;-83
2022/12/09 01:06:44;;;;;;;9.43;3.88;;;-2.20;99.90;;;;;;5104031;28;20476;-84
2022/12/09 01:09:10;;;;;;;10.63;4.47;;;-2.20;99.90;;;;;;5095626;28;20038;-84
2022/12/09 01:11:35;;;;;;;8.85;3.42;;;-1.30;99.90;;;;;;5081254;28;20148;-84
2022/12/09 01:14:02;;;;;;;9.68;3.55;;;-2.20;99.90;;;;;;5100455;28;20055;-84
2022/12/09 01:16:31;;;;;;;8.55;3.83;;;-0.70;99.90;;;;;;5106849;28;20039;-84
2022/12/09 01:18:59;;;;;;;7.50;3.38;;;-1.10;99.90;;;;;;5074745;28;20055;-84
2022/12/09 01:21:26;;;;;;;9.02;3.75;;;-2.00;99.90;;;;;;5100131;28;20185;-84
2022/12/09 01:23:52;;;;;;;8.27;3.65;;;-0.90;99.90;;;;;;5079436;28;20062;-84
2022/12/09 01:26:18;;;;;;;14.20;4.18;;;-2.10;99.90;;;;;;5103264;28;20416;-84
2022/12/09 01:28:43;;;;;;;9.07;4.18;;;-2.10;99.90;;;;;;5098863;28;20118;-84
2022/12/09 01:31:13;;;;;;;13.40;4.95;;;-2.10;99.90;;;;;;5092381;28;20044;-83
2022/12/09 01:33:40;;;;;;;10.13;3.95;;;-2.10;99.90;;;;;;5073795;28;21368;-84
2022/12/09 01:36:09;;;;;;;10.50;3.97;;;-2.10;99.90;;;;;;5082460;28;20043;-84
2022/12/09 01:38:34;;;;;;;10.27;3.92;;;-2.20;99.90;;;;;;5100301;28;20044;-84
2022/12/09 01:41:00;;;;;;;10.60;4.13;;;-2.20;99.90;;;;;;5097134;28;20073;-85
2022/12/09 01:43:26;;;;;;;11.02;4.25;;;-2.30;99.90;;;;;;5102578;28;20044;-84
2022/12/09 01:45:53;;;;;;;8.90;4.30;;;-1.10;99.90;;;;;;5100880;28;20032;-84
2022/12/09 01:48:22;;;;;;;9.65;3.75;;;-2.30;99.90;;;;;;5065761;28;20096;-84
2022/12/09 01:50:52;;;;;;;10.70;4.13;;;-2.40;99.90;;;;;;5094801;28;20488;-84
2022/12/09 01:53:21;;;;;;;13.43;4.97;;;-2.30;99.90;;;;;;5103900;28;20438;-85
2022/12/09 01:55:48;;;;;;;9.70;4.28;;;-2.40;99.90;;;;;;5073751;28;20079;-84
2022/12/09 01:58:14;;;;;;;7.82;3.47;;;-2.50;99.90;;;;;;5100294;28;20055;-84
2022/12/09 02:00:41;;;;;;;7.93;3.35;;;-2.60;99.90;;;;;;5090968;28;20043;-84
2022/12/09 02:03:07;;;;;;;7.00;3.22;;;-2.50;99.90;;;;;;5082035;28;20059;-84
2022/12/09 02:05:34;;;;;;;6.28;2.50;;;-1.90;99.90;;;;;;5091449;28;20047;-84
2022/12/09 02:07:59;;;;;;;3.63;1.65;;;-2.50;99.90;;;;;;5099973;28;20036;-84
2022/12/09 02:10:26;;;;;;;5.13;2.13;;;-2.60;99.90;;;;;;5091586;28;20043;-84
2022/12/09 02:13:17;;;;;;;4.65;1.75;;;-2.40;99.90;;;;;;5081406;28;20080;-83
2022/12/09 02:15:47;;;;;;;5.18;2.30;;;-2.60;99.90;;;;;;5100882;28;20051;-84
2022/12/09 02:18:21;;;;;;;6.90;3.00;;;-2.70;99.90;;;;;;5100030;28;20048;-84
2022/12/09 02:21:10;;;;;;;7.68;3.25;;;-2.70;99.90;;;;;;5099493;28;20039;-84
2022/12/09 02:23:46;;;;;;;7.43;2.67;;;-2.90;99.90;;;;;;4993388;28;20125;-84
2022/12/09 02:26:33;;;;;;;5.18;2.25;;;-2.70;99.90;;;;;;5023437;28;20085;-84
2022/12/09 02:29:07;;;;;;;6.88;2.92;;;-2.70;99.90;;;;;;5018681;28;20050;-84
2022/12/09 02:31:51;;;;;;;7.78;3.50;;;-2.70;99.90;;;;;;5015303;28;20050;-83
2022/12/09 02:34:18;;;;;;;7.90;3.28;;;-2.70;99.90;;;;;;5021151;28;20050;-84
2022/12/09 02:37:01;;;;;;;9.35;3.05;;;-1.70;99.90;;;;;;5028103;28;20049;-83
2022/12/09 02:39:46;;;;;;;9.93;3.63;;;-3.80;99.90;;;;;;5021944;28;20045;-84
2022/12/09 02:42:15;;;;;;;7.00;2.88;;;-2.70;99.90;;;;;;5024179;28;20097;-84
2022/12/09 02:44:44;;;;;;;8.38;3.10;;;-2.70;99.90;;;;;;5023992;28;20502;-83
2022/12/09 02:47:14;;;;;;;7.43;3.10;;;-2.70;99.90;;;;;;5013353;28;20042;-84
2022/12/09 02:49:41;;;;;;;7.78;2.80;;;-2.70;99.90;;;;;;5020655;28;20052;-83
2022/12/09 02:52:08;;;;;;;6.28;3.00;;;-2.70;99.90;;;;;;5020992;28;20033;-84
2022/12/09 02:54:36;;;;;;;9.13;3.38;;;-2.70;99.90;;;;;;5019629;28;20076;-84
2022/12/09 02:57:13;;;;;;;5.63;1.98;;;-1.60;99.90;;;;;;5021137;28;20069;-84
2022/12/09 02:59:39;;;;;;;5.68;2.92;;;-2.80;99.90;;;;;;5027510;28;20084;-84
2022/12/09 03:02:24;;;;;;;7.22;2.75;;;-2.80;99.90;;;;;;5102994;28;20466;-84
2022/12/09 03:05:32;;;;;;;7.15;3.03;;;-2.80;99.90;;;;;;5109424;28;20073;-82
2022/12/09 03:08:27;;;;;;;8.27;3.10;;;-2.80;99.90;;;;;;5020860;28;20054;-83
2022/12/09 03:11:04;;;;;;;6.85;2.38;;;-2.70;99.90;;;;;;5021778;28;20045;-83
2022/12/09 03:13:48;;;;;;;7.82;2.95;;;-2.70;99.90;;;;;;5038170;28;20215;-83
2022/12/09 03:16:40;;;;;;;5.95;2.28;;;-2.70;99.90;;;;;;5040424;28;20180;-84
2022/12/09 03:19:24;;;;;;;5.57;2.60;;;-2.60;99.90;;;;;;5025060;28;20050;-84
2022/12/09 03:21:58;;;;;;;6.60;3.35;;;-1.80;99.90;;;;;;5022808;28;20107;-83
2022/12/09 03:24:31;;;;;;;9.82;3.55;;;-2.60;99.90;;;;;;5030429;28;20040;-84
2022/12/09 03:27:05;;;;;;;6.28;2.30;;;-1.50;99.90;;;;;;5042059;28;20481;-84
2022/12/09 03:29:34;;;;;;;8.77;3.28;;;-2.70;99.90;;;;;;5014438;28;20111;-83
2022/12/09 03:31:59;;;;;;;7.63;2.60;;;-2.80;99.90;;;;;;5017776;28;20053;-84
2022/12/09 03:34:30;;;;;;;6.53;2.25;;;-3.70;99.90;;;;;;5033795;28;20106;-84
2022/12/09 03:36:58;;;;;;;5.97;2.63;;;-2.20;99.90;;;;;;5036902;28;20041;-83
2022/12/09 03:39:29;;;;;;;4.68;2.08;;;-2.90;99.90;;;;;;5028376;28;20044;-84
2022/12/09 03:41:56;;;;;;;6.47;2.15;;;-1.10;99.90;;;;;;5035135;28;20581;-84
2022/12/09 03:44:32;;;;;;;7.93;2.92;;;-2.90;99.90;;;;;;5040995;28;20063;-84
2022/12/09 03:46:58;;;;;;;8.50;2.90;;;-2.90;99.90;;;;;;5084331;28;20044;-83
2022/12/09 03:49:27;;;;;;;8.85;2.95;;;-3.20;99.90;;;;;;5048185;28;20543;-84
2022/12/09 03:52:07;;;;;;;5.45;2.53;;;-3.10;99.90;;;;;;5062240;28;20032;-84
2022/12/09 03:54:43;;;;;;;7.95;2.17;;;-3.00;99.90;;;;;;5053332;28;20066;-83
2022/12/09 03:57:12;;;;;;;6.35;1.85;;;-3.00;99.90;;;;;;5083342;28;20048;-84
2022/12/09 03:59:39;;;;;;;6.80;2.60;;;-3.00;99.90;;;;;;5077956;28;20035;-84
2022/12/09 04:02:05;;;;;;;4.82;2.38;;;-3.00;99.90;;;;;;5075453;28;20044;-84
2022/12/09 04:04:37;;;;;;;6.40;2.30;;;-3.00;99.90;;;;;;5084519;28;20035;-84
2022/12/09 04:07:03;;;;;;;5.90;2.35;;;-3.00;99.90;;;;;;5084592;28;20404;-84
2022/12/09 04:09:28;;;;;;;7.30;3.20;;;-3.00;99.90;;;;;;5065177;28;20036;-84
2022/12/09 04:11:54;;;;;;;5.95;2.97;;;-3.00;99.90;;;;;;5094799;28;20109;-84
2022/12/09 04:14:20;;;;;;;7.97;2.80;;;-3.00;99.90;;;;;;5095595;28;20556;-84
2022/12/09 04:16:48;;;;;;;6.88;2.95;;;-3.10;99.90;;;;;;5104812;28;20054;-84
2022/12/09 04:19:14;;;;;;;5.50;2.17;;;-3.10;99.90;;;;;;5094640;28;20043;-83
2022/12/09 04:21:40;;;;;;;7.25;2.85;;;-3.10;99.90;;;;;;5101493;28;20044;-84
2022/12/09 04:24:06;;;;;;;11.75;3.15;;;-3.10;99.90;;;;;;5100894;28;20400;-84
2022/12/09 04:26:32;;;;;;;6.15;2.60;;;-3.10;99.90;;;;;;5100799;28;20043;-84
2022/12/09 04:28:58;;;;;;;9.15;2.58;;;-3.10;99.90;;;;;;5092599;28;20048;-84
2022/12/09 04:31:24;;;;;;;7.55;2.97;;;-3.10;99.90;;;;;;5094578;28;20066;-84
2022/12/09 04:33:49;;;;;;;6.43;2.75;;;-3.10;99.90;;;;;;5104423;28;20047;-83
2022/12/09 04:36:17;;;;;;;7.32;2.85;;;-3.00;99.90;;;;;;5095974;28;20028;-83
2022/12/09 04:38:43;;;;;;;6.07;2.33;;;-3.10;99.90;;;;;;5082266;28;20048;-83
2022/12/09 04:41:09;;;;;;;6.65;2.58;;;-3.10;99.90;;;;;;5100157;28;20526;-84
2022/12/09 04:43:35;;;;;;;7.28;2.92;;;-3.10;99.90;;;;;;5097220;28;20036;-84
2022/12/09 04:46:04;;;;;;;7.05;3.22;;;-2.20;99.90;;;;;;5074517;28;20040;-84
2022/12/09 04:48:31;;;;;;;9.00;2.58;;;-3.10;99.90;;;;;;5074078;28;20054;-84
2022/12/09 04:50:56;;;;;;;5.95;2.63;;;-3.10;99.90;;;;;;5075115;28;20032;-85
2022/12/09 04:53:22;;;;;;;6.82;2.90;;;-3.20;99.90;;;;;;5099748;28;20051;-84
2022/12/09 04:55:48;;;;;;;7.00;2.47;;;-3.20;99.90;;;;;;5102674;28;20040;-84
2022/12/09 04:58:14;;;;;;;6.78;2.85;;;-2.60;99.90;;;;;;5104813;28;20039;-83
2022/12/09 05:00:39;;;;;;;6.78;2.75;;;-3.00;99.90;;;;;;5099827;28;20131;-83
2022/12/09 05:03:05;;;;;;;8.48;2.33;;;-3.30;99.90;;;;;;5074969;28;20047;-83
2022/12/09 05:05:31;;;;;;;7.57;2.65;;;-3.20;99.90;;;;;;5099786;28;20041;-84
2022/12/09 05:07:56;;;;;;;6.20;2.65;;;-3.20;99.90;;;;;;5098136;28;20047;-84
2022/12/09 05:10:22;;;;;;;8.35;2.92;;;-2.00;99.90;;;;;;5098259;28;20032;-84
2022/12/09 05:12:48;;;;;;;6.53;2.80;;;-3.30;99.90;;;;;;5073337;28;20508;-84
2022/12/09 05:15:13;;;;;;;5.68;2.50;;;-3.20;99.90;;;;;;5092369;28;20036;-83
2022/12/09 05:17:39;;;;;;;8.45;2.70;;;-3.20;99.90;;;;;;5100606;28;20043;-83
2022/12/09 05:20:05;;;;;;;7.70;3.13;;;-3.40;99.90;;;;;;5099915;28;20040;-83
2022/12/09 05:22:31;;;;;;;7.22;2.80;;;-3.10;99.90;;;;;;5073864;28;20102;-83
2022/12/09 05:24:57;;;;;;;6.57;3.28;;;-3.30;99.90;;;;;;5074751;28;20036;-84
2022/12/09 05:27:23;;;;;;;9.05;4.05;;;-3.00;99.90;;;;;;5083848;28;20407;-84
2022/12/09 05:29:48;;;;;;;7.07;2.92;;;-2.20;99.90;;;;;;5079325;28;20043;-84
2022/12/09 05:32:14;;;;;;;7.82;3.17;;;-1.10;99.90;;;;;;5073073;28;20047;-84
2022/12/09 05:34:40;;;;;;;5.25;2.13;;;-3.50;99.90;;;;;;5103453;28;20459;-84
2022/12/09 05:37:12;;;;;;;7.35;3.08;;;-3.70;99.90;;;;;;5060954;28;20040;-84
2022/12/09 05:39:37;;;;;;;8.52;2.97;;;-3.20;99.90;;;;;;5099793;28;20423;-83
2022/12/09 05:42:03;;;;;;;8.82;3.60;;;-3.30;99.90;;;;;;5091877;28;20051;-83
2022/12/09 05:44:29;;;;;;;8.55;2.80;;;-3.20;99.90;;;;;;5099964;28;20085;-84
2022/12/09 05:46:56;;;;;;;10.20;3.15;;;-2.10;99.90;;;;;;5099888;28;20066;-84
2022/12/09 05:49:21;;;;;;;9.13;3.63;;;-3.20;99.90;;;;;;5106099;28;20039;-83
2022/12/09 05:51:47;;;;;;;7.22;2.67;;;-2.00;99.90;;;;;;5091837;28;20070;-83
2022/12/09 05:54:13;;;;;;;5.38;2.20;;;-3.30;99.90;;;;;;5074160;28;20138;-83
2022/12/09 05:56:39;;;;;;;7.10;3.30;;;-2.60;99.90;;;;;;5073602;28;20047;-83
2022/12/09 05:59:04;;;;;;;8.75;2.75;;;-2.30;99.90;;;;;;5096382;28;20430;-83
2022/12/09 06:01:30;;;;;;;8.05;3.03;;;-3.20;99.90;;;;;;5077403;28;20080;-84
2022/12/09 06:03:55;;;;;;;9.35;3.28;;;-3.00;99.90;;;;;;5094050;28;20053;-84
2022/12/09 06:06:28;;;;;;;8.30;3.13;;;-3.20;99.90;;;;;;5080210;28;20051;-83
2022/12/09 06:08:56;;;;;;;9.15;3.25;;;-3.00;99.90;;;;;;5096791;28;20040;-83
2022/12/09 06:11:23;;;;;;;8.63;3.70;;;-3.30;99.90;;;;;;5101437;28;20051;-83
2022/12/09 06:13:50;;;;;;;9.77;2.97;;;-2.60;99.90;;;;;;5101527;28;20047;-84
2022/12/09 06:16:18;;;;;;;8.00;3.33;;;-3.30;99.90;;;;;;5103859;28;20032;-84
2022/12/09 06:18:44;;;;;;;10.50;3.00;;;-2.00;99.90;;;;;;5103124;28;20044;-84
2022/12/09 06:21:11;;;;;;;6.88;2.83;;;-3.40;99.90;;;;;;5095931;28;20040;-84
2022/12/09 06:23:42;;;;;;;10.68;3.05;;;-3.40;99.90;;;;;;5108578;28;20165;-83
2022/12/09 06:26:24;;;;;;;6.88;3.15;;;-2.20;99.90;;;;;;5104497;28;20096;-84
2022/12/09 06:28:50;;;;;;;8.07;2.78;;;-3.60;99.90;;;;;;5081799;28;20040;-84
2022/12/09 06:31:16;;;;;;;8.68;2.75;;;-2.70;99.90;;;;;;5084739;28;20494;-83
2022/12/09 06:33:42;;;;;;;7.15;2.95;;;-3.50;99.90;;;;;;5107304;28;20050;-84
2022/12/09 06:36:09;;;;;;;8.88;3.65;;;-3.20;99.90;;;;;;5080274;28;20036;-84
2022/12/09 06:38:35;;;;;;;6.47;2.88;;;-3.30;99.90;;;;;;5105548;28;20111;-84
2022/12/09 06:41:06;;;;;;;7.38;2.60;;;-3.30;99.90;;;;;;5099370;28;20117;-85
2022/12/09 06:43:31;;;;;;;7.93;3.10;;;-3.20;99.90;;;;;;5095504;28;20047;-85
2022/12/09 06:45:57;;;;;;;6.03;2.33;;;-3.20;99.90;;;;;;5106518;28;20400;-85
2022/12/09 06:48:22;;;;;;;8.77;3.53;;;-3.30;99.90;;;;;;5105367;28;20392;-83
2022/12/09 06:50:50;;;;;;;7.80;2.90;;;-1.30;99.90;;;;;;5067046;28;20048;-84
2022/12/09 06:53:15;;;;;;;7.97;3.70;;;-3.20;99.90;;;;;;5103124;28;20039;-83
2022/12/09 06:55:41;;;;;;;7.70;3.10;;;-3.20;99.90;;;;;;5096250;28;20123;-84
2022/12/09 06:58:07;;;;;;;4.78;2.33;;;-2.00;99.90;;;;;;5083537;28;20044;-84
2022/12/09 07:00:32;;;;;;;6.95;3.28;;;-2.70;99.90;;;;;;5094492;28;20369;-83
2022/12/09 07:02:58;;;;;;;6.32;2.95;;;-3.70;99.90;;;;;;5103475;28;20044;-83
2022/12/09 07:05:27;;;;;;;5.05;2.25;;;-3.20;99.90;;;;;;5076923;28;20048;-83
2022/12/09 07:07:52;;;;;;;8.68;3.25;;;-2.30;99.90;;;;;;5102960;28;20040;-84
2022/12/09 07:10:20;;;;;;;7.63;3.67;;;-3.20;99.90;;;;;;5101545;28;20452;-84
2022/12/09 07:12:46;;;;;;;11.98;3.38;;;-3.10;99.90;;;;;;5102730;28;20052;-84
2022/12/09 07:15:12;;;;;;;7.30;2.90;;;-3.10;99.90;;;;;;5089632;28;20073;-84
2022/12/09 07:17:38;;;;;;;6.78;2.53;;;-3.10;99.90;;;;;;5105181;28;20127;-84
2022/12/09 07:20:05;;;;;;;7.70;2.92;;;-3.10;99.90;;;;;;5095063;28;20114;-84
2022/12/09 07:22:32;;;;;;;7.10;2.45;;;-3.00;99.90;;;;;;5076603;28;20055;-84
2022/12/09 07:24:58;;;;;;;9.38;2.80;;;-2.50;99.90;;;;;;5075363;28;20048;-84
2022/12/09 07:27:23;;;;;;;8.48;3.55;;;-3.00;99.90;;;;;;5105281;28;20556;-84
2022/12/09 07:29:49;;;;;;;8.93;3.08;;;-3.10;99.90;;;;;;5098558;28;20059;-84
2022/12/09 07:32:14;;;;;;;8.98;3.03;;;-2.10;99.90;;;;;;5077254;28;20063;-83
2022/12/09 07:34:41;;;;;;;7.05;2.83;;;-2.70;99.90;;;;;;5100876;28;20096;-83
2022/12/09 07:37:06;;;;;;;7.32;2.95;;;-1.70;99.90;;;;;;5102493;28;20068;-84
2022/12/09 07:39:32;;;;;;;8.15;3.78;;;-3.10;99.90;;;;;;5078056;28;20517;-85
2022/12/09 07:41:58;;;;;;;8.65;2.88;;;-1.20;99.90;;;;;;5099916;28;20492;-83
2022/12/09 07:44:26;;;;;;;9.63;3.15;;;-1.90;99.90;;;;;;5101513;28;20382;-83
2022/12/09 07:46:53;;;;;;;6.38;3.13;;;-3.20;99.90;;;;;;5082400;28;20042;-84
2022/12/09 07:49:19;;;;;;;7.97;3.17;;;-3.20;99.90;;;;;;5083968;28;20044;-83
2022/12/09 07:51:44;;;;;;;8.45;3.65;;;-2.30;99.90;;;;;;5074770;28;20071;-83
2022/12/09 07:54:12;;;;;;;8.10;3.50;;;-3.20;99.90;;;;;;5083701;28;20127;-84
2022/12/09 07:56:38;;;;;;;7.72;3.45;;;-3.20;99.90;;;;;;5100208;28;20591;-84
2022/12/09 07:59:11;;;;;;;10.05;3.85;;;-2.60;99.90;;;;;;5093684;28;20086;-84
2022/12/09 08:01:38;;;;;;;6.30;2.95;;;-3.10;99.90;;;;;;5074771;28;20180;-84
2022/12/09 08:04:05;;;;;;;7.35;3.03;;;-3.30;99.90;;;;;;5083875;28;20087;-85
2022/12/09 08:06:31;;;;;;;9.27;3.33;;;-3.20;99.90;;;;;;5075096;28;20044;-85
2022/12/09 08:09:02;;;;;;;10.63;3.92;;;-2.70;99.90;;;;;;5101299;28;20039;-85
2022/12/09 08:11:29;;;;;;;9.55;3.38;;;-3.20;99.90;;;;;;5092875;28;20059;-85
2022/12/09 08:13:56;;;;;;;6.72;2.92;;;-3.20;99.90;;;;;;5074788;28;20055;-84
2022/12/09 08:16:23;;;;;;;8.10;3.33;;;-0.90;99.90;;;;;;5097847;28;20069;-84
2022/12/09 08:18:50;;;;;;;9.40;3.10;;;-3.00;99.90;;;;;;5101945;28;20384;-84
2022/12/09 08:21:20;;;;;;;7.40;2.85;;;-3.10;99.90;;;;;;5075259;28;20040;-84
2022/12/09 08:23:46;;;;;;;8.93;3.45;;;-2.60;99.90;;;;;;5100506;28;20036;-85
2022/12/09 08:26:13;;;;;;;6.97;2.90;;;-1.20;99.90;;;;;;5095411;28;20093;-85
2022/12/09 08:28:39;;;;;;;9.77;3.45;;;-3.00;99.90;;;;;;5105021;28;20411;-85
2022/12/09 08:31:10;;;;;;;9.50;3.38;;;-2.90;99.90;;;;;;5102485;28;20040;-85
2022/12/09 08:33:36;;;;;;;8.50;3.30;;;-2.80;99.90;;;;;;5100712;28;20476;-84
2022/12/09 08:36:08;;;;;;;6.57;2.50;;;-2.80;99.90;;;;;;5093630;28;20124;-82
2022/12/09 08:38:33;;;;;;;8.27;3.08;;;-2.60;99.90;;;;;;5057019;28;20052;-84
2022/12/09 08:41:17;;;;;;;7.35;2.60;;;-1.50;99.90;;;;;;5092866;28;20032;-85
2022/12/09 08:43:44;;;;;;;9.98;4.00;;;-2.40;99.90;;;;;;5092733;28;20495;-85
2022/12/09 08:46:10;;;;;;;10.43;3.97;;;-2.40;99.90;;;;;;5076995;28;20488;-86
2022/12/09 08:48:38;;;;;;;11.07;4.20;;;-2.30;99.90;;;;;;5092249;28;20036;-86
2022/12/09 08:51:04;;;;;;;11.40;3.60;;;-2.20;99.90;;;;;;5098917;28;20044;-84
2022/12/09 08:53:31;;;;;;;7.57;3.28;;;-2.10;99.90;;;;;;5074980;28;20448;-87
2022/12/09 08:55:56;;;;;;;14.70;4.78;;;-0.80;99.90;;;;;;5074964;28;20047;-87
2022/12/09 08:58:22;;;;;;;11.23;4.72;;;-2.10;99.90;;;;;;5081192;28;20135;-87
2022/12/09 09:00:49;;;;;;;12.55;4.78;;;-1.30;99.90;;;;;;5082243;28;20036;-87
2022/12/09 09:03:14;;;;;;;13.27;4.10;;;-2.40;99.90;;;;;;5092286;28;20048;-86
2022/12/09 09:05:40;;;;;;;10.60;4.05;;;-0.90;99.90;;;;;;5082020;28;20408;-87
2022/12/09 09:08:06;;;;;;;9.10;4.25;;;-1.90;99.90;;;;;;5098078;28;20043;-85
2022/12/09 09:10:31;;;;;;;12.32;3.90;;;-1.90;99.90;;;;;;5077025;28;20043;-85
2022/12/09 09:12:57;;;;;;;10.02;3.50;;;-0.10;99.90;;;;;;5077975;28;20480;-86
2022/12/09 09:15:23;;;;;;;10.32;4.03;;;-1.20;99.90;;;;;;5096157;28;20068;-87
2022/12/09 09:17:52;;;;;;;8.82;3.47;;;-0.30;99.90;;;;;;5094445;28;20032;-87
2022/12/09 09:20:18;;;;;;;12.05;4.25;;;-0.60;99.90;;;;;;5099212;28;20064;-87
2022/12/09 09:22:43;;;;;;;12.48;4.75;;;-0.80;99.90;;;;;;5100552;28;20035;-86
2022/12/09 09:25:09;;;;;;;15.57;4.82;;;-1.10;99.90;;;;;;5103968;28;20535;-87
2022/12/09 09:27:38;;;;;;;13.35;4.60;;;-0.90;99.90;;;;;;5103850;28;20153;-86
2022/12/09 09:30:05;;;;;;;13.73;5.22;;;-1.00;99.90;;;;;;5074170;28;20044;-86
2022/12/09 09:32:31;;;;;;;17.38;6.97;;;-0.90;99.90;;;;;;5100598;28;20102;-86
2022/12/09 09:34:57;;;;;;;14.15;5.13;;;-0.90;99.90;;;;;;5074036;28;20408;-87
2022/12/09 09:37:23;;;;;;;16.55;6.00;;;1.30;99.90;;;;;;5095002;28;20391;-85
2022/12/09 09:39:48;;;;;;;12.60;5.72;;;-0.90;99.90;;;;;;5074507;28;20040;-85
2022/12/09 09:42:19;;;;;;;11.43;4.57;;;0.00;99.90;;;;;;5098628;28;20671;-86
2022/12/09 09:44:47;;;;;;;11.45;4.70;;;-0.80;99.90;;;;;;5107507;28;20066;-87
2022/12/09 09:47:21;;;;;;;12.93;5.30;;;-0.30;99.90;;;;;;5078892;28;20048;-85
2022/12/09 09:49:54;;;;;;;13.45;5.28;;;-0.20;99.90;;;;;;5085967;28;20126;-85
2022/12/09 09:52:23;;;;;;;15.27;5.75;;;0.00;99.90;;;;;;5085598;28;20044;-86
2022/12/09 09:54:50;;;;;;;16.05;6.63;;;-0.60;99.90;;;;;;5104439;28;20036;-87
2022/12/09 09:57:28;;;;;;;14.02;6.05;;;-0.60;99.90;;;;;;5086032;28;20058;-86
2022/12/09 10:00:03;;;;;;;18.95;7.65;;;-0.50;99.90;;;;;;5104387;28;20109;-87
2022/12/09 10:02:48;;;;;;;;;;;-0.50;99.90;;;;;;5070598;28;20429;-87
2022/12/09 10:05:20;;;;;;;16.58;6.63;;;-0.30;99.90;;;;;;5098290;28;20368;-87
2022/12/09 10:07:55;;;;;;;18.33;6.78;;;-0.20;99.90;;;;;;5083870;28;20044;-86
2022/12/09 10:10:39;;;;;;;16.05;6.35;;;1.20;99.90;;;;;;5101052;28;20117;-85
2022/12/09 10:13:23;;;;;;;18.65;6.97;;;0.40;99.90;;;;;;5107351;28;20044;-86
2022/12/09 10:15:58;;;;;;;20.27;8.05;;;-0.10;99.90;;;;;;5092308;28;20039;-85
2022/12/09 10:18:30;;;;;;;20.35;7.35;;;0.90;99.90;;;;;;5085445;28;20052;-85
2022/12/09 10:20:56;;;;;;;17.70;7.07;;;-0.10;99.90;;;;;;5060324;28;20044;-86
2022/12/09 10:23:22;;;;;;;17.25;7.20;;;0.00;99.90;;;;;;5077362;28;20048;-86
2022/12/09 10:25:58;;;;;;;23.08;9.02;;;0.20;99.90;;;;;;5103870;28;20453;-87
2022/12/09 10:28:41;;;;;;;21.52;8.23;;;0.00;99.90;;;;;;5104348;28;20063;-86
2022/12/09 10:31:10;;;;;;;19.33;7.15;;;0.60;99.90;;;;;;5107261;28;20123;-86
2022/12/09 10:33:37;;;;;;;19.83;8.00;;;1.10;99.90;;;;;;5100479;28;20234;-87
2022/12/09 10:36:06;;;;;;;17.70;8.30;;;0.70;99.90;;;;;;5103494;28;20051;-87
2022/12/09 10:38:36;;;;;;;19.45;7.75;;;0.20;99.90;;;;;;5110117;28;20039;-89
2022/12/09 10:44:22;;;;;;;18.55;7.60;;;0.20;99.90;;;;;;5095404;28;20461;-87
2022/12/09 10:47:03;;;;;;;20.42;8.77;;;1.30;99.90;;;;;;5106004;28;20047;-90
2022/12/09 10:49:29;;;;;;;16.25;6.88;;;0.30;99.90;;;;;;5079482;28;20044;-88
2022/12/09 10:51:55;;;;;;;14.75;5.90;;;-0.30;99.90;;;;;;5079961;28;20405;-88
2022/12/09 10:54:27;;;;;;;17.33;7.25;;;1.40;99.90;;;;;;5077565;28;20044;-87
2022/12/09 10:57:13;;;;;;;17.75;8.02;;;1.20;99.90;;;;;;5104381;28;20067;-87
2022/12/09 10:59:40;;;;;;;;;;;0.40;99.90;;;;;;5101315;28;20047;-87
2022/12/09 11:02:09;;;;;;;16.75;7.00;;;1.50;99.90;;;;;;5103115;28;19927;-86
2022/12/09 11:04:37;;;;;;;15.07;6.07;;;1.20;99.90;;;;;;5102680;28;20185;-85
2022/12/09 11:07:06;;;;;;;19.83;8.00;;;1.40;99.90;;;;;;5077415;28;20047;-87
2022/12/09 11:09:39;;;;;;;21.45;8.55;;;0.60;99.90;;;;;;5077342;28;20052;-89
2022/12/09 11:12:13;;;;;;;18.30;8.38;;;0.70;99.90;;;;;;5102394;28;20408;-86
2022/12/09 11:14:51;;;;;;;17.77;7.88;;;0.70;99.90;;;;;;5104215;28;20055;-84
2022/12/09 11:17:28;;;;;;;22.95;9.63;;;0.70;99.90;;;;;;5106126;28;20040;-86
2022/12/09 11:20:27;;;;;;;20.08;8.00;;;0.70;99.90;;;;;;5075446;28;20070;-86
2022/12/09 11:23:00;;;;;;;18.77;7.75;;;0.80;99.90;;;;;;5015003;28;20447;-84
2022/12/09 11:25:29;;;;;;;20.50;8.25;;;1.30;99.90;;;;;;5023348;28;20503;-84
2022/12/09 11:28:04;;;;;;;27.65;10.15;;;1.10;99.90;;;;;;4998114;28;20054;-85
2022/12/09 11:30:40;;;;;;;19.13;9.10;;;0.80;99.90;;;;;;5023483;28;20053;-85
2022/12/09 11:33:12;;;;;;;18.48;8.25;;;1.70;99.90;;;;;;4989508;28;20045;-84
2022/12/09 11:35:44;;;;;;;21.83;8.18;;;0.80;99.90;;;;;;5018132;28;20049;-85
2022/12/09 11:38:42;;;;;;;21.27;9.02;;;0.70;99.90;;;;;;5007487;28;20058;-85
2022/12/09 11:41:11;;;;;;;19.98;8.63;;;0.80;99.90;;;;;;4997082;28;20080;-84
2022/12/09 11:43:53;;;;;;;20.45;7.82;;;0.80;99.90;;;;;;5003949;28;20041;-83
2022/12/09 11:46:31;;;;;;;16.60;7.22;;;1.10;99.90;;;;;;5019808;28;20066;-85
2022/12/09 11:49:04;;;;;;;26.08;9.32;;;0.70;99.90;;;;;;5020274;28;20131;-86
2022/12/09 11:51:39;;;;;;;20.45;8.45;;;0.70;99.90;;;;;;5000940;28;20422;-84
2022/12/09 11:54:33;;;;;;;24.10;9.88;;;0.60;99.90;;;;;;5019339;28;20150;-85
2022/12/09 11:57:00;;;;;;;25.27;9.23;;;0.70;99.90;;;;;;5004280;28;20034;-85
2022/12/09 11:59:35;;;;;;;23.75;9.25;;;0.70;99.90;;;;;;5053560;28;20047;-85
2022/12/09 12:02:34;;;;;;;23.65;9.10;;;1.70;99.90;;;;;;5109248;28;20055;-84
2022/12/09 12:05:11;;;;;;;16.55;8.43;;;0.70;99.90;;;;;;5102556;28;20421;-85
2022/12/09 12:07:43;;;;;;;19.83;8.77;;;0.60;99.90;;;;;;5105223;28;20036;-84
2022/12/09 12:10:40;;;;;;;22.33;8.73;;;0.50;99.90;;;;;;5081177;28;20067;-84
2022/12/09 12:13:29;;;;;;;17.92;7.65;;;0.60;99.90;;;;;;5101768;28;20044;-85
2022/12/09 12:16:07;;;;;;;20.27;8.38;;;0.60;99.90;;;;;;5101177;28;20058;-85
2022/12/09 12:18:48;;;;;;;17.75;7.97;;;0.60;99.90;;;;;;5068324;28;20044;-85
2022/12/09 12:21:44;;;;;;;17.42;7.78;;;0.60;99.90;;;;;;5082555;28;20185;-86
2022/12/09 12:24:43;;;;;;;23.13;8.43;;;0.60;99.90;;;;;;5081250;28;20048;-85
2022/12/09 12:27:49;;;;;;;21.98;9.27;;;0.60;99.90;;;;;;5089260;28;20043;-86
2022/12/09 12:30:20;;;;;;;21.85;9.15;;;0.60;99.90;;;;;;5093339;28;20032;-85
2022/12/09 12:32:48;;;;;;;22.15;9.15;;;0.60;99.90;;;;;;5083114;28;20401;-85
2022/12/09 12:35:17;;;;;;;21.90;9.43;;;0.60;99.90;;;;;;5075107;28;20404;-85
2022/12/09 12:38:03;;;;;;;21.45;8.40;;;0.70;99.90;;;;;;5081556;28;20059;-84
2022/12/09 12:40:42;;;;;;;24.58;9.45;;;0.60;99.90;;;;;;5096506;28;20047;-86
2022/12/09 12:46:25;;;;;;;17.10;8.15;;;0.60;99.90;;;;;;5049240;28;20084;-85
2022/12/09 12:49:30;;;;;;;18.08;7.57;;;0.70;99.90;;;;;;5046389;28;20510;-85
2022/12/09 12:52:05;;;;;;;15.55;7.15;;;0.60;99.90;;;;;;4991551;28;20375;-85
2022/12/09 12:55:07;;;;;;;17.77;7.73;;;0.60;99.90;;;;;;4990881;28;20046;-85
2022/12/09 12:58:04;;;;;;;18.25;6.88;;;0.60;99.90;;;;;;4998960;28;20355;-86
2022/12/09 13:00:54;;;;;;;16.75;6.38;;;0.70;99.90;;;;;;4991772;28;20110;-86
2022/12/09 13:03:32;;;;;;;25.92;10.02;;;0.70;99.90;;;;;;4974815;28;20137;-85
2022/12/09 13:05:58;;;;;;;23.33;9.13;;;0.70;99.90;;;;;;4990688;28;20042;-86
2022/12/09 13:08:39;;;;;;;21.17;7.40;;;0.70;99.90;;;;;;4992050;28;20042;-85